Time;durP1;ratioP1;P1;durP2;ratioP2;P2;SDS_P1;SDS_P2;PMS_P1;PMS_P2;Temp;Humidity;BMP_temperature;BMP_pressure;BME280_temperature;BME280_humidity;BME280_pressure;Samples;Min_cycle;Max_cycle;Signal;HPM_P1;HPM_P2
2023/04/15 00:00:54;;;;;;;;;;;;;;;19.14;54.13;97738.28;2080359;28;20352;-48
2023/04/15 00:01:58;;;;;;;;;;;;;;;19.14;53.99;97738.28;2081217;28;19932;-48
2023/04/15 00:02:59;;;;;;;;;;;;;;;19.13;53.93;97732.06;2079016;28;21088;-46
2023/04/15 00:04:00;;;;;;;;;;;;;;;19.13;53.96;97731.25;2078939;28;19936;-48
2023/04/15 00:05:01;;;;;;;;;;;;;;;19.14;54.08;97741.00;2081867;28;19929;-49
2023/04/15 00:06:02;;;;;;;;;;;;;;;19.14;53.88;97735.59;2080072;28;19938;-47
2023/04/15 00:07:03;;;;;;;;;;;;;;;19.14;54.17;97730.22;2081077;28;19982;-46
2023/04/15 00:08:05;;;;;;;;;;;;;;;19.14;53.99;97730.22;2075778;28;22066;-46
2023/04/15 00:09:05;;;;;;;;;;;;;;;19.15;53.94;97734.53;2080413;28;19939;-47
2023/04/15 00:10:09;;;;;;;;;;;;;;;19.13;54.21;97736.63;2078745;28;19928;-47
2023/04/15 00:11:09;;;;;;;;;;;;;;;19.12;53.92;97735.81;2083683;28;19932;-46
2023/04/15 00:12:11;;;;;;;;;;;;;;;19.14;53.94;97736.41;2081693;28;19958;-47
2023/04/15 00:13:11;;;;;;;;;;;;;;;19.12;53.94;97735.81;2078637;28;20513;-47
2023/04/15 00:14:13;;;;;;;;;;;;;;;19.12;54.04;97729.63;2081365;28;19935;-47
2023/04/15 00:15:14;;;;;;;;;;;;;;;19.12;54.00;97729.63;2078212;28;19928;-47
2023/04/15 00:16:15;;;;;;;;;;;;;;;19.12;54.12;97727.75;2080248;28;19937;-47
2023/04/15 00:17:16;;;;;;;;;;;;;;;19.12;53.96;97735.00;2079072;28;19932;-48
2023/04/15 00:18:18;;;;;;;;;;;;;;;19.10;54.01;97735.22;2081072;28;19970;-48
2023/04/15 00:19:18;;;;;;;;;;;;;;;19.09;54.02;97725.53;2077746;28;20075;-47
2023/04/15 00:20:19;;;;;;;;;;;;;;;19.12;53.98;97730.44;2079663;28;19935;-50
2023/04/15 00:21:20;;;;;;;;;;;;;;;19.12;54.13;97732.31;2078871;28;19936;-47
2023/04/15 00:22:22;;;;;;;;;;;;;;;19.10;54.18;97729.03;2079381;28;19933;-47
2023/04/15 00:23:22;;;;;;;;;;;;;;;19.09;54.08;97730.09;2077338;28;19928;-48
2023/04/15 00:24:23;;;;;;;;;;;;;;;19.09;54.08;97736.28;2081140;28;19924;-47
2023/04/15 00:25:26;;;;;;;;;;;;;;;19.07;53.95;97733.00;2080146;28;20005;-48
2023/04/15 00:26:27;;;;;;;;;;;;;;;19.07;54.21;97735.69;2085558;28;19925;-48
2023/04/15 00:27:28;;;;;;;;;;;;;;;19.07;54.13;97734.88;2081254;28;19936;-47
2023/04/15 00:28:31;;;;;;;;;;;;;;;19.05;54.50;97729.72;2078012;28;19940;-47
2023/04/15 00:29:31;;;;;;;;;;;;;;;19.07;54.36;97721.44;2077472;28;20016;-48
2023/04/15 00:30:32;;;;;;;;;;;;;;;19.05;54.11;97720.84;2077090;28;19939;-47
2023/04/15 00:31:33;;;;;;;;;;;;;;;19.06;54.08;97727.88;2079750;28;19941;-47
2023/04/15 00:32:34;;;;;;;;;;;;;;;19.04;54.11;97722.72;2079631;28;19937;-46
2023/04/15 00:33:35;;;;;;;;;;;;;;;19.03;54.33;97715.69;2078966;28;20509;-49
2023/04/15 00:34:37;;;;;;;;;;;;;;;19.04;54.24;97711.13;2081936;28;19938;-46
2023/04/15 00:35:37;;;;;;;;;;;;;;;19.05;54.16;97712.78;2081418;28;20646;-46
2023/04/15 00:36:39;;;;;;;;;;;;;;;19.03;54.30;97718.38;2082624;28;19966;-47
2023/04/15 00:37:39;;;;;;;;;;;;;;;19.02;54.31;97713.22;2079814;28;20341;-46
2023/04/15 00:38:41;;;;;;;;;;;;;;;19.02;54.22;97723.97;2081482;28;19933;-48
2023/04/15 00:39:41;;;;;;;;;;;;;;;19.03;54.34;97730.97;2081204;28;20375;-46
2023/04/15 00:40:44;;;;;;;;;;;;;;;19.02;54.35;97721.28;2080567;28;19928;-47
2023/04/15 00:41:45;;;;;;;;;;;;;;;19.01;54.25;97716.97;2082011;28;19936;-47
2023/04/15 00:42:46;;;;;;;;;;;;;;;19.01;54.51;97723.16;2080832;28;20504;-46
2023/04/15 00:43:47;;;;;;;;;;;;;;;19.00;54.19;97723.38;2078964;28;20976;-47
2023/04/15 00:44:48;;;;;;;;;;;;;;;19.00;54.12;97726.06;2080971;28;20140;-47
2023/04/15 00:45:50;;;;;;;;;;;;;;;19.00;54.20;97726.06;2078891;28;19964;-47
2023/04/15 00:46:52;;;;;;;;;;;;;;;19.01;54.38;97730.41;2081187;28;19933;-47
2023/04/15 00:47:53;;;;;;;;;;;;;;;19.00;54.53;97720.69;2080451;28;20406;-46
2023/04/15 00:48:55;;;;;;;;;;;;;;;19.00;54.55;97726.06;2080717;28;19925;-46
2023/04/15 00:49:55;;;;;;;;;;;;;;;18.98;54.44;97729.00;2078003;28;20468;-51
2023/04/15 00:50:56;;;;;;;;;;;;;;;18.96;54.45;97720.34;2079814;28;19925;-49
2023/04/15 00:51:57;;;;;;;;;;;;;;;18.96;54.30;97726.53;2078409;28;19932;-46
2023/04/15 00:52:58;;;;;;;;;;;;;;;18.96;54.28;97723.84;2080724;28;19929;-46
2023/04/15 00:53:59;;;;;;;;;;;;;;;18.94;54.68;97723.28;2078895;28;20522;-46
2023/04/15 00:55:01;;;;;;;;;;;;;;;18.95;54.41;97730.28;2081340;28;19978;-47
2023/04/15 00:56:03;;;;;;;;;;;;;;;18.93;54.37;97721.59;2087919;28;19925;-50
2023/04/15 00:57:05;;;;;;;;;;;;;;;18.94;54.23;97725.97;2085385;28;19932;-46
2023/04/15 00:58:06;;;;;;;;;;;;;;;18.94;54.32;97717.06;2088034;28;20379;-51
2023/04/15 00:59:08;;;;;;;;;;;;;;;18.94;54.42;97715.22;2087564;28;19929;-48
2023/04/15 01:00:10;;;;;;;;;;;;;;;18.93;54.23;97718.09;2086127;28;19949;-49
2023/04/15 01:01:12;;;;;;;;;;;;;;;18.92;54.35;97714.59;2086447;28;20552;-51
2023/04/15 01:02:12;;;;;;;;;;;;;;;18.90;54.66;97719.38;2087824;28;20438;-49
2023/04/15 01:03:14;;;;;;;;;;;;;;;18.90;54.47;97722.06;2085886;28;19940;-51
2023/04/15 01:04:15;;;;;;;;;;;;;;;18.90;54.22;97715.88;2085906;28;19971;-47
2023/04/15 01:05:18;;;;;;;;;;;;;;;18.89;54.44;97717.75;2087994;28;19924;-48
2023/04/15 01:06:18;;;;;;;;;;;;;;;18.89;54.50;97712.38;2085633;28;19983;-47
2023/04/15 01:07:20;;;;;;;;;;;;;;;18.88;54.40;97712.59;2085250;28;19932;-48
2023/04/15 01:08:20;;;;;;;;;;;;;;;18.88;54.28;97716.09;2087092;28;19929;-50
2023/04/15 01:09:22;;;;;;;;;;;;;;;18.85;54.55;97713.88;2087392;28;20456;-47
2023/04/15 01:10:22;;;;;;;;;;;;;;;18.87;54.57;97716.34;2086190;28;19925;-50
2023/04/15 01:11:25;;;;;;;;;;;;;;;18.86;54.48;97709.31;2089569;28;20639;-46
2023/04/15 01:12:26;;;;;;;;;;;;;;;18.85;54.63;97710.38;2087142;28;19959;-49
2023/04/15 01:13:28;;;;;;;;;;;;;;;18.84;54.49;97706.88;2087108;28;20294;-46
2023/04/15 01:14:29;;;;;;;;;;;;;;;18.85;54.54;97702.31;2086629;28;19928;-50
2023/04/15 01:15:30;;;;;;;;;;;;;;;18.83;54.58;97699.84;2078099;28;19966;-51
2023/04/15 01:16:31;;;;;;;;;;;;;;;18.83;54.52;97707.88;2086468;28;19931;-51
2023/04/15 01:17:32;;;;;;;;;;;;;;;18.83;54.45;97699.84;2086555;28;20019;-46
2023/04/15 01:18:33;;;;;;;;;;;;;;;18.82;54.40;97698.19;2086027;28;19982;-53
2023/04/15 01:19:36;;;;;;;;;;;;;;;18.82;54.25;97690.16;2086297;28;19940;-51
2023/04/15 01:20:36;;;;;;;;;;;;;;;18.81;54.36;97693.06;2085330;28;19932;-50
2023/04/15 01:21:38;;;;;;;;;;;;;;;18.80;54.25;97686.84;2084126;28;19929;-48
2023/04/15 01:22:39;;;;;;;;;;;;;;;18.80;54.43;97689.53;2087770;28;19935;-51
2023/04/15 01:23:41;;;;;;;;;;;;;;;18.80;54.39;97694.91;2083754;28;20383;-50
2023/04/15 01:24:46;;;;;;;;;;;;;;;18.78;54.41;97690.81;2085019;28;19925;-47
2023/04/15 01:25:49;;;;;;;;;;;;;;;18.79;54.57;97687.91;2087075;28;19935;-52
2023/04/15 01:26:49;;;;;;;;;;;;;;;18.76;54.30;97688.38;2086035;28;19937;-50
2023/04/15 01:27:51;;;;;;;;;;;;;;;18.76;54.51;97691.06;2086528;28;20051;-46
2023/04/15 01:28:51;;;;;;;;;;;;;;;18.76;54.63;97699.13;2086581;28;19928;-48
2023/04/15 01:29:52;;;;;;;;;;;;;;;18.75;54.60;97695.63;2089451;28;19978;-48
2023/04/15 01:31:04;;;;;;;;;;;;;;;18.74;54.56;97693.97;2086958;28;20433;-48
2023/04/15 01:32:06;;;;;;;;;;;;;;;18.76;54.65;97699.13;2086704;28;20402;-50
2023/04/15 01:33:06;;;;;;;;;;;;;;;18.73;54.62;97695.00;2086282;28;19936;-48
2023/04/15 01:34:08;;;;;;;;;;;;;;;18.73;54.66;97700.34;2084834;28;19929;-50
2023/04/15 01:35:08;;;;;;;;;;;;;;;18.72;54.50;97693.34;2086333;28;19932;-48
2023/04/15 01:36:10;;;;;;;;;;;;;;;18.73;54.38;97696.84;2087310;28;19932;-46
2023/04/15 01:37:10;;;;;;;;;;;;;;;18.72;54.46;97697.88;2088983;28;19970;-47
2023/04/15 01:38:13;;;;;;;;;;;;;;;18.71;54.83;97694.38;2085677;28;19925;-51
2023/04/15 01:39:13;;;;;;;;;;;;;;;18.69;54.46;97693.81;2088069;28;20027;-49
2023/04/15 01:40:15;;;;;;;;;;;;;;;18.70;54.71;97691.94;2085829;28;19967;-49
2023/04/15 01:41:20;;;;;;;;;;;;;;;18.70;54.52;97694.63;2085885;28;19928;-52
2023/04/15 01:42:22;;;;;;;;;;;;;;;18.69;54.89;97701.03;2078268;28;19929;-54
2023/04/15 01:43:22;;;;;;;;;;;;;;;18.68;54.47;97696.72;2082607;28;19928;-49
2023/04/15 01:44:24;;;;;;;;;;;;;;;18.67;54.75;97695.09;2082113;28;19924;-48
2023/04/15 01:45:24;;;;;;;;;;;;;;;18.66;54.76;97690.75;2081457;28;20721;-50
2023/04/15 01:46:26;;;;;;;;;;;;;;;18.66;54.48;97693.44;2077653;28;19936;-49
2023/04/15 01:47:26;;;;;;;;;;;;;;;18.67;54.70;97695.09;2079549;28;19982;-48
2023/04/15 01:48:28;;;;;;;;;;;;;;;18.66;54.56;97690.75;2077985;28;21451;-52
2023/04/15 01:49:28;;;;;;;;;;;;;;;18.66;54.68;97682.69;2079791;28;21265;-47
2023/04/15 01:50:30;;;;;;;;;;;;;;;18.66;54.64;97686.19;2084494;28;19954;-48
2023/04/15 01:51:31;;;;;;;;;;;;;;;18.65;54.44;97691.78;2087958;28;19990;-48
2023/04/15 01:52:32;;;;;;;;;;;;;;;18.63;54.55;97688.50;2084677;28;19929;-51
2023/04/15 01:53:33;;;;;;;;;;;;;;;18.63;54.67;97689.31;2085348;28;19929;-47
2023/04/15 01:54:34;;;;;;;;;;;;;;;18.63;54.72;97685.81;2081807;28;19967;-49
2023/04/15 01:55:35;;;;;;;;;;;;;;;18.61;54.69;97688.75;2078587;28;19935;-49
2023/04/15 01:56:38;;;;;;;;;;;;;;;18.60;54.74;97688.97;2079674;28;20801;-49
2023/04/15 01:57:39;;;;;;;;;;;;;;;18.61;54.71;97693.28;2078828;28;19967;-49
2023/04/15 01:58:41;;;;;;;;;;;;;;;18.59;54.70;97687.34;2079969;28;20006;-49
2023/04/15 01:59:41;;;;;;;;;;;;;;;18.59;54.76;97687.34;2085712;28;19936;-50
2023/04/15 02:00:42;;;;;;;;;;;;;;;18.58;54.74;97686.50;2079661;28;19995;-48
2023/04/15 02:01:44;;;;;;;;;;;;;;;18.58;54.74;97685.69;2078629;28;19924;-50
2023/04/15 02:02:45;;;;;;;;;;;;;;;18.58;54.79;97691.06;2081061;28;20386;-47
2023/04/15 02:03:46;;;;;;;;;;;;;;;18.56;54.75;97696.66;2078801;27;19982;-52
2023/04/15 02:04:47;;;;;;;;;;;;;;;18.57;54.75;97700.16;2078448;28;19936;-48
2023/04/15 02:05:48;;;;;;;;;;;;;;;18.56;54.35;97699.34;2078433;28;20009;-53
2023/04/15 02:06:49;;;;;;;;;;;;;;;18.56;54.56;97693.16;2077000;28;20782;-48
2023/04/15 02:07:50;;;;;;;;;;;;;;;18.56;54.56;97693.16;2079080;28;20409;-50
2023/04/15 02:08:52;;;;;;;;;;;;;;;18.54;54.55;97686.13;2079774;28;19932;-52
2023/04/15 02:09:52;;;;;;;;;;;;;;;18.54;54.79;97693.38;2080142;28;20027;-52
2023/04/15 02:10:54;;;;;;;;;;;;;;;18.53;54.83;97700.63;2079051;28;19935;-50
2023/04/15 02:11:56;;;;;;;;;;;;;;;18.52;54.90;97698.16;2074903;28;20318;-50
2023/04/15 02:12:57;;;;;;;;;;;;;;;18.52;54.78;97701.66;2086029;28;19933;-53
2023/04/15 02:13:57;;;;;;;;;;;;;;;18.53;54.76;97702.50;2086163;28;19928;-50
2023/04/15 02:14:59;;;;;;;;;;;;;;;18.51;54.63;97707.25;2079205;28;20367;-53
2023/04/15 02:15:59;;;;;;;;;;;;;;;18.51;54.52;97712.63;2081257;28;20489;-51
2023/04/15 02:17:06;;;;;;;;;;;;;;;18.50;54.58;97709.13;2080063;27;19978;-51
2023/04/15 02:18:06;;;;;;;;;;;;;;;18.50;54.76;97713.69;2078836;28;19933;-52
2023/04/15 02:19:08;;;;;;;;;;;;;;;18.48;54.88;97710.41;2082175;28;19935;-54
2023/04/15 02:20:09;;;;;;;;;;;;;;;18.48;54.76;97713.09;2079183;28;19940;-51
2023/04/15 02:21:10;;;;;;;;;;;;;;;18.48;54.65;97726.50;2079533;28;20549;-52
2023/04/15 02:22:17;;;;;;;;;;;;;;;18.49;54.81;97725.44;2074930;28;21175;-50
2023/04/15 02:23:18;;;;;;;;;;;;;;;18.47;54.65;97720.31;2081394;28;20025;-49
2023/04/15 02:24:18;;;;;;;;;;;;;;;18.48;54.85;97707.72;2081116;28;20296;-49
2023/04/15 02:25:20;;;;;;;;;;;;;;;18.47;54.82;97716.78;2081535;28;20009;-51
2023/04/15 02:26:21;;;;;;;;;;;;;;;18.46;54.59;97720.53;2081557;27;19943;-48
2023/04/15 02:27:24;;;;;;;;;;;;;;;18.42;54.64;97717.50;2077556;28;19933;-48
2023/04/15 02:28:24;;;;;;;;;;;;;;;18.44;54.69;97717.25;2081806;28;20005;-52
2023/04/15 02:29:26;;;;;;;;;;;;;;;18.46;54.71;97720.53;2083375;28;19977;-50
2023/04/15 02:30:26;;;;;;;;;;;;;;;18.44;54.68;97715.41;2081425;28;19985;-49
2023/04/15 02:31:28;;;;;;;;;;;;;;;18.42;54.61;97717.50;2082477;28;19955;-51
2023/04/15 02:32:28;;;;;;;;;;;;;;;18.43;54.55;97720.97;2081171;28;20021;-50
2023/04/15 02:33:31;;;;;;;;;;;;;;;18.42;54.63;97704.06;2081129;28;19932;-50
2023/04/15 02:34:32;;;;;;;;;;;;;;;18.43;54.92;97713.75;2081464;28;19936;-49
2023/04/15 02:35:35;;;;;;;;;;;;;;;18.42;54.58;97701.38;2080120;28;19925;-50
2023/04/15 02:36:35;;;;;;;;;;;;;;;18.41;54.80;97699.72;2080017;28;19935;-47
2023/04/15 02:37:42;;;;;;;;;;;;;;;18.40;54.85;97700.78;2080563;28;20055;-47
2023/04/15 02:38:42;;;;;;;;;;;;;;;18.39;54.66;97707.19;2080463;28;19931;-49
2023/04/15 02:39:44;;;;;;;;;;;;;;;18.38;54.96;97697.47;2084122;28;19932;-51
2023/04/15 02:40:45;;;;;;;;;;;;;;;18.37;55.01;97703.09;2078234;28;20114;-47
2023/04/15 02:41:50;;;;;;;;;;;;;;;18.37;54.91;97701.22;2080996;28;20013;-50
2023/04/15 02:42:52;;;;;;;;;;;;;;;18.37;54.93;97701.22;2083827;28;20008;-49
2023/04/15 02:43:53;;;;;;;;;;;;;;;18.35;55.13;97692.56;2080154;28;19998;-51
2023/04/15 02:44:54;;;;;;;;;;;;;;;18.36;54.96;97699.59;2081422;28;20092;-49
2023/04/15 02:45:56;;;;;;;;;;;;;;;18.35;55.05;97697.13;2080321;28;19932;-47
2023/04/15 02:46:57;;;;;;;;;;;;;;;18.33;54.86;97700.06;2084166;28;19928;-51
2023/04/15 02:48:00;;;;;;;;;;;;;;;18.33;54.71;97694.69;2080563;28;19935;-50
2023/04/15 02:49:02;;;;;;;;;;;;;;;18.34;54.98;97690.94;2078321;28;20019;-50
2023/04/15 02:50:03;;;;;;;;;;;;;;;18.34;54.95;97690.13;2078684;28;21295;-50
2023/04/15 02:51:10;;;;;;;;;;;;;;;18.33;54.67;97693.84;2079798;28;19986;-49
2023/04/15 02:52:12;;;;;;;;;;;;;;;18.32;54.75;97682.28;2075560;28;19940;-47
2023/04/15 02:53:13;;;;;;;;;;;;;;;18.32;54.85;97682.28;2079103;28;19999;-47
2023/04/15 02:54:15;;;;;;;;;;;;;;;18.31;54.87;97683.34;2083218;28;20096;-47
2023/04/15 02:55:16;;;;;;;;;;;;;;;18.29;54.86;97680.88;2087122;28;19934;-51
2023/04/15 02:56:18;;;;;;;;;;;;;;;18.29;55.08;97683.53;2084597;28;20519;-49
2023/04/15 02:57:19;;;;;;;;;;;;;;;18.30;54.97;97690.56;2084931;28;19932;-50
2023/04/15 02:58:21;;;;;;;;;;;;;;;18.30;54.80;97684.38;2083387;28;19932;-50
2023/04/15 02:59:22;;;;;;;;;;;;;;;18.28;55.00;97689.97;2086978;28;19932;-47
2023/04/15 03:00:24;;;;;;;;;;;;;;;18.28;55.02;97686.47;2084875;28;19978;-49
2023/04/15 03:01:25;;;;;;;;;;;;;;;18.27;55.13;97698.22;2085550;28;19928;-48
2023/04/15 03:02:26;;;;;;;;;;;;;;;18.29;54.79;97704.22;2083903;28;19939;-51
2023/04/15 03:03:27;;;;;;;;;;;;;;;18.27;55.00;97698.22;2085279;28;19925;-49
2023/04/15 03:04:29;;;;;;;;;;;;;;;18.27;55.06;97703.59;2086173;28;20006;-50
2023/04/15 03:05:30;;;;;;;;;;;;;;;18.25;54.92;97701.16;2084651;28;20341;-49
2023/04/15 03:06:31;;;;;;;;;;;;;;;18.27;55.00;97700.91;2084685;28;19932;-50
2023/04/15 03:07:32;;;;;;;;;;;;;;;18.24;55.06;97701.38;2086615;28;19928;-51
2023/04/15 03:08:33;;;;;;;;;;;;;;;18.24;55.03;97704.06;2084616;28;19929;-47
2023/04/15 03:09:34;;;;;;;;;;;;;;;18.24;55.10;97706.75;2085703;28;19924;-48
2023/04/15 03:10:35;;;;;;;;;;;;;;;18.23;54.81;97711.28;2085101;28;19970;-49
2023/04/15 03:11:39;;;;;;;;;;;;;;;18.23;55.18;97710.47;2085361;28;19975;-52
2023/04/15 03:12:40;;;;;;;;;;;;;;;18.22;54.91;97711.50;2082526;28;19925;-49
2023/04/15 03:13:42;;;;;;;;;;;;;;;18.22;55.05;97714.19;2088005;28;19956;-53
2023/04/15 03:14:44;;;;;;;;;;;;;;;18.21;55.19;97716.06;2087147;28;19929;-49
2023/04/15 03:15:45;;;;;;;;;;;;;;;18.20;55.04;97714.44;2083759;28;19976;-52
2023/04/15 03:16:46;;;;;;;;;;;;;;;18.19;54.93;97720.00;2085562;28;20302;-54
2023/04/15 03:17:48;;;;;;;;;;;;;;;18.20;55.00;97716.28;2087279;28;19929;-51
2023/04/15 03:18:49;;;;;;;;;;;;;;;18.21;54.95;97712.56;2085451;28;19939;-52
2023/04/15 03:19:50;;;;;;;;;;;;;;;18.19;54.85;97715.47;2085986;28;20432;-47
2023/04/15 03:20:51;;;;;;;;;;;;;;;18.19;54.96;97709.25;2084310;28;19982;-50
2023/04/15 03:21:52;;;;;;;;;;;;;;;18.20;55.15;97722.47;2084635;28;19928;-49
2023/04/15 03:22:53;;;;;;;;;;;;;;;18.20;54.89;97716.28;2086601;28;20329;-51
2023/04/15 03:23:53;;;;;;;;;;;;;;;18.18;55.01;97721.88;2087170;28;19928;-47
2023/04/15 03:24:55;;;;;;;;;;;;;;;18.18;55.05;97721.06;2086311;28;19933;-50
2023/04/15 03:25:56;;;;;;;;;;;;;;;18.17;54.97;97719.44;2085984;28;19933;-47
2023/04/15 03:26:58;;;;;;;;;;;;;;;18.14;55.20;97718.00;2085421;28;19932;-50
2023/04/15 03:27:59;;;;;;;;;;;;;;;18.15;55.32;97722.31;2083659;28;20382;-48
2023/04/15 03:29:01;;;;;;;;;;;;;;;18.15;55.22;97718.81;2085482;28;19979;-47
2023/04/15 03:30:02;;;;;;;;;;;;;;;18.14;55.21;97711.81;2084933;28;19928;-50
2023/04/15 03:31:03;;;;;;;;;;;;;;;18.14;55.09;97717.19;2087878;28;19982;-49
2023/04/15 03:32:04;;;;;;;;;;;;;;;18.14;55.08;97717.19;2086172;28;20070;-50
2023/04/15 03:33:06;;;;;;;;;;;;;;;18.14;54.98;97718.00;2086537;28;19932;-50
2023/04/15 03:34:06;;;;;;;;;;;;;;;18.14;55.09;97722.56;2088759;28;19936;-51
2023/04/15 03:35:08;;;;;;;;;;;;;;;18.14;55.12;97723.38;2084095;28;19986;-49
2023/04/15 03:36:08;;;;;;;;;;;;;;;18.12;55.24;97721.94;2080974;28;19932;-49
2023/04/15 03:37:10;;;;;;;;;;;;;;;18.12;55.20;97730.81;2081197;28;20023;-52
2023/04/15 03:38:10;;;;;;;;;;;;;;;18.11;55.20;97728.34;2085511;28;19933;-50
2023/04/15 03:39:12;;;;;;;;;;;;;;;18.11;55.01;97728.34;2087908;28;19925;-52
2023/04/15 03:40:12;;;;;;;;;;;;;;;18.10;55.00;97735.59;2079380;28;19972;-50
2023/04/15 03:41:14;;;;;;;;;;;;;;;18.11;55.08;97737.25;2080991;28;20604;-52
2023/04/15 03:42:14;;;;;;;;;;;;;;;18.10;55.19;97738.25;2078690;28;19925;-52
2023/04/15 03:43:16;;;;;;;;;;;;;;;18.12;55.08;97746.09;2081304;28;19978;-50
2023/04/15 03:44:18;;;;;;;;;;;;;;;18.11;55.09;97747.13;2078609;28;19929;-49
2023/04/15 03:45:19;;;;;;;;;;;;;;;18.09;55.20;97748.19;2077965;28;19929;-48
2023/04/15 03:46:20;;;;;;;;;;;;;;;18.09;55.22;97739.31;2084860;28;20283;-49
2023/04/15 03:47:21;;;;;;;;;;;;;;;18.09;55.18;97740.13;2081653;28;19978;-52
2023/04/15 03:48:22;;;;;;;;;;;;;;;18.09;54.99;97737.44;2079689;28;20432;-49
2023/04/15 03:49:23;;;;;;;;;;;;;;;18.09;55.11;97736.63;2080378;28;19990;-47
2023/04/15 03:50:24;;;;;;;;;;;;;;;18.08;55.05;97738.50;2081705;28;19932;-49
2023/04/15 03:51:25;;;;;;;;;;;;;;;18.07;55.28;97736.84;2083823;28;20348;-49
2023/04/15 03:52:25;;;;;;;;;;;;;;;18.06;55.32;97735.22;2079963;28;20427;-50
2023/04/15 03:53:27;;;;;;;;;;;;;;;18.06;55.05;97737.91;2076435;28;19983;-51
2023/04/15 03:54:27;;;;;;;;;;;;;;;18.06;55.43;97745.13;2078646;28;19929;-52
2023/04/15 03:55:29;;;;;;;;;;;;;;;18.05;55.32;97749.69;2078476;28;20006;-51
2023/04/15 03:56:29;;;;;;;;;;;;;;;18.04;55.29;97750.69;2083133;28;19968;-49
2023/04/15 03:57:31;;;;;;;;;;;;;;;18.04;55.18;97745.34;2086362;28;19944;-53
2023/04/15 03:58:31;;;;;;;;;;;;;;;18.04;55.32;97749.88;2086449;28;19924;-51
2023/04/15 03:59:34;;;;;;;;;;;;;;;18.04;55.35;97750.69;2086264;28;19933;-48
2023/04/15 04:00:35;;;;;;;;;;;;;;;18.04;55.08;97745.34;2085475;28;20055;-47
2023/04/15 04:01:36;;;;;;;;;;;;;;;18.05;55.30;97748.84;2087537;28;19929;-49
2023/04/15 04:02:37;;;;;;;;;;;;;;;18.03;55.08;97741.03;2084015;28;19932;-47
2023/04/15 04:03:38;;;;;;;;;;;;;;;18.02;55.10;97751.97;2084856;28;19954;-47
2023/04/15 04:04:39;;;;;;;;;;;;;;;18.02;55.46;97742.03;2085999;28;19940;-52
2023/04/15 04:05:42;;;;;;;;;;;;;;;18.02;55.35;97750.09;2086972;28;19936;-51
2023/04/15 04:06:43;;;;;;;;;;;;;;;18.00;55.35;97744.16;2085863;28;19972;-50
2023/04/15 04:07:45;;;;;;;;;;;;;;;18.00;55.28;97749.53;2086765;28;19941;-47
2023/04/15 04:08:45;;;;;;;;;;;;;;;17.99;55.27;97745.19;2087376;28;20756;-52
2023/04/15 04:09:47;;;;;;;;;;;;;;;17.99;55.35;97741.69;2075982;28;19936;-51
2023/04/15 04:10:47;;;;;;;;;;;;;;;17.99;55.42;97741.69;2087370;28;19932;-49
2023/04/15 04:11:49;;;;;;;;;;;;;;;18.00;55.22;97743.34;2086670;28;20655;-49
2023/04/15 04:12:49;;;;;;;;;;;;;;;18.00;55.17;97744.16;2087277;28;19925;-51
2023/04/15 04:13:51;;;;;;;;;;;;;;;17.98;55.13;97737.38;2085951;28;19983;-49
2023/04/15 04:14:53;;;;;;;;;;;;;;;17.99;55.28;97741.69;2087458;28;19968;-50
2023/04/15 04:15:54;;;;;;;;;;;;;;;17.98;55.22;97740.88;2088754;28;20578;-51
2023/04/15 04:16:56;;;;;;;;;;;;;;;17.97;55.30;97731.19;2088146;28;19970;-49
2023/04/15 04:17:57;;;;;;;;;;;;;;;17.97;55.29;97733.88;2088244;28;19924;-49
2023/04/15 04:18:58;;;;;;;;;;;;;;;17.96;55.20;97732.22;2087024;28;19925;-51
2023/04/15 04:19:59;;;;;;;;;;;;;;;17.97;55.14;97743.75;2086941;28;20019;-49
2023/04/15 04:21:00;;;;;;;;;;;;;;;17.96;55.17;97740.25;2091022;28;20482;-51
2023/04/15 04:22:01;;;;;;;;;;;;;;;17.95;55.45;97733.25;2087054;28;19929;-49
2023/04/15 04:23:02;;;;;;;;;;;;;;;17.95;55.24;97735.94;2087729;28;19986;-49
2023/04/15 04:24:03;;;;;;;;;;;;;;;17.96;55.16;97736.75;2090587;28;19928;-50
2023/04/15 04:25:04;;;;;;;;;;;;;;;17.96;55.42;97731.38;2086484;28;19932;-48
2023/04/15 04:26:06;;;;;;;;;;;;;;;17.94;55.19;97737.00;2087979;28;19960;-52
2023/04/15 04:27:06;;;;;;;;;;;;;;;17.94;55.19;97731.63;2088674;28;19936;-50
2023/04/15 04:28:07;;;;;;;;;;;;;;;17.94;55.20;97737.00;2087667;28;20314;-49
2023/04/15 04:29:08;;;;;;;;;;;;;;;17.94;55.32;97728.09;2084450;28;19991;-51
2023/04/15 04:30:11;;;;;;;;;;;;;;;17.93;55.37;97729.16;2077150;28;19944;-46
2023/04/15 04:31:12;;;;;;;;;;;;;;;17.92;55.21;97731.03;2079457;28;19932;-48
2023/04/15 04:32:13;;;;;;;;;;;;;;;17.93;55.33;97729.16;2079831;28;19929;-51
2023/04/15 04:33:14;;;;;;;;;;;;;;;17.91;55.36;97729.34;2083181;28;19925;-51
2023/04/15 04:34:15;;;;;;;;;;;;;;;17.91;55.54;97724.00;2078606;27;19924;-51
2023/04/15 04:35:15;;;;;;;;;;;;;;;17.91;55.27;97726.69;2081443;28;19982;-50
2023/04/15 04:36:17;;;;;;;;;;;;;;;17.91;55.21;97726.69;2079294;28;20379;-49
2023/04/15 04:37:17;;;;;;;;;;;;;;;17.89;55.28;97720.75;2079057;28;20791;-49
2023/04/15 04:38:19;;;;;;;;;;;;;;;17.91;55.27;97729.34;2079493;28;20027;-51
2023/04/15 04:39:19;;;;;;;;;;;;;;;17.91;55.36;97725.84;2080705;28;20394;-50
2023/04/15 04:40:21;;;;;;;;;;;;;;;17.90;55.30;97727.72;2081495;28;19962;-51
2023/04/15 04:41:21;;;;;;;;;;;;;;;17.90;55.40;97722.38;2080154;28;20600;-49
2023/04/15 04:42:22;;;;;;;;;;;;;;;17.90;55.31;97732.28;2080853;28;19981;-51
2023/04/15 04:43:23;;;;;;;;;;;;;;;17.90;55.31;97729.59;2079021;28;19924;-51
2023/04/15 04:44:25;;;;;;;;;;;;;;;17.89;55.37;97736.00;2079907;28;23590;-52
2023/04/15 04:45:26;;;;;;;;;;;;;;;17.89;55.49;97728.78;2078544;28;20018;-49
2023/04/15 04:46:28;;;;;;;;;;;;;;;17.88;55.22;97732.50;2080974;28;20545;-46
2023/04/15 04:47:29;;;;;;;;;;;;;;;17.88;55.55;97729.81;2079236;28;19978;-50
2023/04/15 04:48:30;;;;;;;;;;;;;;;17.87;55.21;97733.53;2084371;28;19936;-49
2023/04/15 04:49:30;;;;;;;;;;;;;;;17.86;55.43;97731.91;2080264;28;20918;-50
2023/04/15 04:50:32;;;;;;;;;;;;;;;17.86;55.27;97726.53;2080990;28;19982;-50
2023/04/15 04:51:32;;;;;;;;;;;;;;;17.84;55.45;97724.06;2080577;28;19940;-50
2023/04/15 04:52:34;;;;;;;;;;;;;;;17.84;55.42;97720.56;2080764;28;20010;-51
2023/04/15 04:53:36;;;;;;;;;;;;;;;17.83;55.44;97718.94;2079960;28;19928;-49
2023/04/15 04:54:37;;;;;;;;;;;;;;;17.84;55.41;97720.56;2078176;28;19978;-49
2023/04/15 04:55:38;;;;;;;;;;;;;;;17.84;55.54;97720.56;2079784;28;19982;-52
2023/04/15 04:56:39;;;;;;;;;;;;;;;17.83;55.51;97724.31;2085879;28;19990;-49
2023/04/15 04:57:40;;;;;;;;;;;;;;;17.83;55.43;97727.81;2087361;28;19972;-48
2023/04/15 04:58:41;;;;;;;;;;;;;;;17.83;55.39;97727.00;2088305;28;19940;-47
2023/04/15 04:59:42;;;;;;;;;;;;;;;17.81;55.31;97729.88;2089151;28;19970;-48
2023/04/15 05:00:45;;;;;;;;;;;;;;;17.81;55.29;97729.88;2087151;28;20338;-47
2023/04/15 05:01:45;;;;;;;;;;;;;;;17.81;55.46;97732.56;2086115;28;19932;-54
2023/04/15 05:02:47;;;;;;;;;;;;;;;17.81;55.50;97729.06;2086452;28;19924;-47
2023/04/15 05:03:48;;;;;;;;;;;;;;;17.80;55.48;97730.94;2085399;28;19928;-50
2023/04/15 05:04:49;;;;;;;;;;;;;;;17.81;55.67;97734.44;2088172;28;20371;-46
2023/04/15 05:05:50;;;;;;;;;;;;;;;17.79;55.49;97736.50;2086776;28;19929;-48
2023/04/15 05:06:51;;;;;;;;;;;;;;;17.79;55.42;97733.81;2086357;28;19932;-53
2023/04/15 05:07:52;;;;;;;;;;;;;;;17.80;55.39;97743.50;2085243;28;19932;-52
2023/04/15 05:08:52;;;;;;;;;;;;;;;17.78;55.46;97748.25;2086394;28;19981;-50
2023/04/15 05:09:54;;;;;;;;;;;;;;;17.77;55.65;97743.91;2087344;28;19998;-48
2023/04/15 05:10:55;;;;;;;;;;;;;;;17.77;55.67;97751.94;2087628;28;19928;-49
2023/04/15 05:11:56;;;;;;;;;;;;;;;17.77;55.38;97754.63;2076734;28;21009;-49
2023/04/15 05:12:57;;;;;;;;;;;;;;;17.78;55.61;97751.78;2086242;28;19936;-47
2023/04/15 05:14:00;;;;;;;;;;;;;;;17.77;55.51;97751.94;2088204;28;19956;-51
2023/04/15 05:15:01;;;;;;;;;;;;;;;17.80;55.51;97759.59;2086812;28;20260;-48
2023/04/15 05:16:04;;;;;;;;;;;;;;;17.80;55.47;97756.91;2086924;28;19935;-47
2023/04/15 05:17:04;;;;;;;;;;;;;;;17.81;55.30;97750.53;2089977;28;20382;-51
2023/04/15 05:18:05;;;;;;;;;;;;;;;17.83;55.24;97753.81;2083474;28;19924;-46
2023/04/15 05:19:06;;;;;;;;;;;;;;;17.85;55.42;97757.06;2086183;28;20132;-52
2023/04/15 05:20:08;;;;;;;;;;;;;;;17.84;55.23;97758.94;2087163;28;19982;-51